sensor_id;sensor_type;location;lat;lon;timestamp;P1;durP1;ratioP1;P2;durP2;ratioP2
10637;SDS011;47007;49.252;8.904;2022-07-25T00:01:44;7.65;;;7.05;;
10637;SDS011;47007;49.252;8.904;2022-07-25T00:04:12;8.65;;;7.85;;
10637;SDS011;47007;49.252;8.904;2022-07-25T00:06:40;8.00;;;7.40;;
10637;SDS011;47007;49.252;8.904;2022-07-25T00:09:08;7.85;;;7.15;;
10637;SDS011;47007;49.252;8.904;2022-07-25T00:11:35;8.07;;;7.25;;
10637;SDS011;47007;49.252;8.904;2022-07-25T00:14:02;7.25;;;6.75;;
10637;SDS011;47007;49.252;8.904;2022-07-25T00:16:30;8.85;;;8.15;;
10637;SDS011;47007;49.252;8.904;2022-07-25T00:18:57;7.40;;;6.90;;
10637;SDS011;47007;49.252;8.904;2022-07-25T00:21:24;7.80;;;7.20;;
10637;SDS011;47007;49.252;8.904;2022-07-25T00:23:51;8.65;;;8.05;;
10637;SDS011;47007;49.252;8.904;2022-07-25T00:26:17;9.00;;;8.30;;
10637;SDS011;47007;49.252;8.904;2022-07-25T00:28:44;9.43;;;8.60;;
10637;SDS011;47007;49.252;8.904;2022-07-25T00:31:11;9.20;;;8.50;;
10637;SDS011;47007;49.252;8.904;2022-07-25T00:33:38;9.75;;;8.82;;
10637;SDS011;47007;49.252;8.904;2022-07-25T00:36:06;9.18;;;8.48;;
10637;SDS011;47007;49.252;8.904;2022-07-25T00:38:33;9.02;;;8.10;;
10637;SDS011;47007;49.252;8.904;2022-07-25T00:41:01;7.82;;;7.20;;
10637;SDS011;47007;49.252;8.904;2022-07-25T00:43:29;8.43;;;7.82;;
10637;SDS011;47007;49.252;8.904;2022-07-25T00:45:55;8.93;;;7.95;;
10637;SDS011;47007;49.252;8.904;2022-07-25T00:48:28;8.90;;;8.20;;
10637;SDS011;47007;49.252;8.904;2022-07-25T00:50:55;8.25;;;7.55;;
10637;SDS011;47007;49.252;8.904;2022-07-25T00:53:22;8.48;;;7.82;;
10637;SDS011;47007;49.252;8.904;2022-07-25T00:55:49;8.02;;;7.43;;
10637;SDS011;47007;49.252;8.904;2022-07-25T00:58:16;8.20;;;7.53;;
10637;SDS011;47007;49.252;8.904;2022-07-25T01:00:44;8.05;;;7.45;;
10637;SDS011;47007;49.252;8.904;2022-07-25T01:03:11;7.30;;;6.80;;
10637;SDS011;47007;49.252;8.904;2022-07-25T01:05:38;8.57;;;7.80;;
10637;SDS011;47007;49.252;8.904;2022-07-25T01:08:05;7.85;;;7.35;;
10637;SDS011;47007;49.252;8.904;2022-07-25T01:10:32;7.97;;;7.38;;
10637;SDS011;47007;49.252;8.904;2022-07-25T01:12:59;7.82;;;7.13;;
10637;SDS011;47007;49.252;8.904;2022-07-25T01:15:26;7.43;;;6.82;;
10637;SDS011;47007;49.252;8.904;2022-07-25T01:17:54;7.95;;;7.30;;
10637;SDS011;47007;49.252;8.904;2022-07-25T01:20:21;7.18;;;6.68;;
10637;SDS011;47007;49.252;8.904;2022-07-25T01:22:49;7.88;;;7.18;;
10637;SDS011;47007;49.252;8.904;2022-07-25T01:25:16;8.07;;;7.47;;
10637;SDS011;47007;49.252;8.904;2022-07-25T01:27:43;8.40;;;7.68;;
10637;SDS011;47007;49.252;8.904;2022-07-25T01:30:18;8.55;;;7.90;;
10637;SDS011;47007;49.252;8.904;2022-07-25T01:32:46;8.07;;;7.47;;
10637;SDS011;47007;49.252;8.904;2022-07-25T01:35:13;7.97;;;7.32;;
10637;SDS011;47007;49.252;8.904;2022-07-25T01:37:40;8.32;;;7.55;;
10637;SDS011;47007;49.252;8.904;2022-07-25T01:40:11;7.40;;;6.90;;
10637;SDS011;47007;49.252;8.904;2022-07-25T01:42:39;7.97;;;7.30;;
10637;SDS011;47007;49.252;8.904;2022-07-25T01:45:07;7.95;;;7.35;;
10637;SDS011;47007;49.252;8.904;2022-07-25T01:47:35;8.02;;;7.43;;
10637;SDS011;47007;49.252;8.904;2022-07-25T01:50:02;8.48;;;7.72;;
10637;SDS011;47007;49.252;8.904;2022-07-25T01:52:30;8.40;;;7.70;;
10637;SDS011;47007;49.252;8.904;2022-07-25T01:54:56;8.18;;;7.38;;
10637;SDS011;47007;49.252;8.904;2022-07-25T01:57:24;7.30;;;6.70;;
10637;SDS011;47007;49.252;8.904;2022-07-25T01:59:56;7.70;;;7.10;;
10637;SDS011;47007;49.252;8.904;2022-07-25T02:02:23;8.30;;;7.60;;
10637;SDS011;47007;49.252;8.904;2022-07-25T02:04:50;7.53;;;6.93;;
10637;SDS011;47007;49.252;8.904;2022-07-25T02:07:17;8.68;;;7.88;;
10637;SDS011;47007;49.252;8.904;2022-07-25T02:09:44;9.18;;;8.48;;
10637;SDS011;47007;49.252;8.904;2022-07-25T02:12:10;8.35;;;7.75;;
10637;SDS011;47007;49.252;8.904;2022-07-25T02:14:37;8.80;;;8.10;;
10637;SDS011;47007;49.252;8.904;2022-07-25T02:17:04;9.50;;;8.75;;
10637;SDS011;47007;49.252;8.904;2022-07-25T02:19:31;8.55;;;7.88;;
10637;SDS011;47007;49.252;8.904;2022-07-25T02:21:58;9.20;;;8.40;;
10637;SDS011;47007;49.252;8.904;2022-07-25T02:24:24;8.45;;;7.85;;
10637;SDS011;47007;49.252;8.904;2022-07-25T02:26:51;7.95;;;7.25;;
10637;SDS011;47007;49.252;8.904;2022-07-25T02:29:18;9.90;;;9.00;;
10637;SDS011;47007;49.252;8.904;2022-07-25T02:31:47;8.57;;;7.82;;
10637;SDS011;47007;49.252;8.904;2022-07-25T02:34:14;8.00;;;7.40;;
10637;SDS011;47007;49.252;8.904;2022-07-25T02:36:41;8.82;;;8.13;;
10637;SDS011;47007;49.252;8.904;2022-07-25T02:39:08;8.52;;;7.90;;
10637;SDS011;47007;49.252;8.904;2022-07-25T02:41:35;8.63;;;7.75;;
10637;SDS011;47007;49.252;8.904;2022-07-25T02:44:02;7.88;;;7.18;;
10637;SDS011;47007;49.252;8.904;2022-07-25T02:46:29;8.18;;;7.57;;
10637;SDS011;47007;49.252;8.904;2022-07-25T02:48:56;8.18;;;7.50;;
10637;SDS011;47007;49.252;8.904;2022-07-25T02:51:24;8.75;;;8.02;;
10637;SDS011;47007;49.252;8.904;2022-07-25T02:53:51;8.43;;;7.82;;
10637;SDS011;47007;49.252;8.904;2022-07-25T02:56:24;8.90;;;8.20;;
10637;SDS011;47007;49.252;8.904;2022-07-25T02:58:55;7.78;;;7.22;;
10637;SDS011;47007;49.252;8.904;2022-07-25T03:01:21;8.05;;;7.40;;
10637;SDS011;47007;49.252;8.904;2022-07-25T03:03:48;8.88;;;8.18;;
10637;SDS011;47007;49.252;8.904;2022-07-25T03:06:15;8.30;;;7.70;;
10637;SDS011;47007;49.252;8.904;2022-07-25T03:08:42;8.80;;;8.10;;
10637;SDS011;47007;49.252;8.904;2022-07-25T03:11:09;8.55;;;7.72;;
10637;SDS011;47007;49.252;8.904;2022-07-25T03:13:36;8.25;;;7.65;;
10637;SDS011;47007;49.252;8.904;2022-07-25T03:16:03;9.38;;;8.63;;
10637;SDS011;47007;49.252;8.904;2022-07-25T03:18:30;8.20;;;7.60;;
10637;SDS011;47007;49.252;8.904;2022-07-25T03:20:57;8.02;;;7.40;;
10637;SDS011;47007;49.252;8.904;2022-07-25T03:23:23;8.05;;;7.45;;
10637;SDS011;47007;49.252;8.904;2022-07-25T03:25:53;9.13;;;8.20;;
10637;SDS011;47007;49.252;8.904;2022-07-25T03:28:20;8.02;;;7.32;;
10637;SDS011;47007;49.252;8.904;2022-07-25T03:30:46;8.18;;;7.47;;
10637;SDS011;47007;49.252;8.904;2022-07-25T03:33:13;8.30;;;7.60;;
10637;SDS011;47007;49.252;8.904;2022-07-25T03:35:39;8.40;;;7.68;;
10637;SDS011;47007;49.252;8.904;2022-07-25T03:38:06;9.02;;;8.32;;
10637;SDS011;47007;49.252;8.904;2022-07-25T03:40:33;9.23;;;8.52;;
10637;SDS011;47007;49.252;8.904;2022-07-25T03:43:00;8.65;;;7.93;;
10637;SDS011;47007;49.252;8.904;2022-07-25T03:45:27;8.95;;;8.25;;
10637;SDS011;47007;49.252;8.904;2022-07-25T03:47:54;9.43;;;8.50;;
10637;SDS011;47007;49.252;8.904;2022-07-25T03:50:21;8.90;;;8.13;;
10637;SDS011;47007;49.252;8.904;2022-07-25T03:52:48;8.45;;;7.65;;
10637;SDS011;47007;49.252;8.904;2022-07-25T03:55:14;8.90;;;8.10;;
10637;SDS011;47007;49.252;8.904;2022-07-25T03:57:41;9.45;;;8.57;;
10637;SDS011;47007;49.252;8.904;2022-07-25T04:00:08;8.60;;;7.90;;
10637;SDS011;47007;49.252;8.904;2022-07-25T04:02:36;8.02;;;7.43;;
10637;SDS011;47007;49.252;8.904;2022-07-25T04:05:06;8.70;;;8.10;;
10637;SDS011;47007;49.252;8.904;2022-07-25T04:07:34;8.02;;;7.43;;
10637;SDS011;47007;49.252;8.904;2022-07-25T04:10:01;8.30;;;7.60;;
10637;SDS011;47007;49.252;8.904;2022-07-25T04:12:28;8.98;;;8.18;;
10637;SDS011;47007;49.252;8.904;2022-07-25T04:14:54;8.85;;;8.15;;
10637;SDS011;47007;49.252;8.904;2022-07-25T04:17:21;9.57;;;8.77;;
10637;SDS011;47007;49.252;8.904;2022-07-25T04:19:51;8.68;;;7.95;;
10637;SDS011;47007;49.252;8.904;2022-07-25T04:22:18;8.77;;;8.07;;
10637;SDS011;47007;49.252;8.904;2022-07-25T04:24:44;8.40;;;7.80;;
10637;SDS011;47007;49.252;8.904;2022-07-25T04:27:11;8.20;;;7.57;;
10637;SDS011;47007;49.252;8.904;2022-07-25T04:29:38;8.68;;;8.00;;
10637;SDS011;47007;49.252;8.904;2022-07-25T04:32:05;9.25;;;8.55;;
10637;SDS011;47007;49.252;8.904;2022-07-25T04:34:32;9.25;;;8.55;;
10637;SDS011;47007;49.252;8.904;2022-07-25T04:36:59;9.00;;;8.20;;
10637;SDS011;47007;49.252;8.904;2022-07-25T04:39:25;8.88;;;8.07;;
10637;SDS011;47007;49.252;8.904;2022-07-25T04:41:52;9.00;;;8.30;;
10637;SDS011;47007;49.252;8.904;2022-07-25T04:44:19;9.10;;;8.40;;
10637;SDS011;47007;49.252;8.904;2022-07-25T04:46:45;8.15;;;7.53;;
10637;SDS011;47007;49.252;8.904;2022-07-25T04:49:12;8.25;;;7.55;;
10637;SDS011;47007;49.252;8.904;2022-07-25T04:51:39;8.45;;;7.80;;
10637;SDS011;47007;49.252;8.904;2022-07-25T04:54:05;10.07;;;9.15;;
10637;SDS011;47007;49.252;8.904;2022-07-25T04:56:32;9.88;;;9.02;;
10637;SDS011;47007;49.252;8.904;2022-07-25T04:58:59;9.52;;;8.65;;
10637;SDS011;47007;49.252;8.904;2022-07-25T05:01:32;8.60;;;7.97;;
10637;SDS011;47007;49.252;8.904;2022-07-25T05:03:59;9.30;;;8.38;;
10637;SDS011;47007;49.252;8.904;2022-07-25T05:06:26;10.02;;;9.13;;
10637;SDS011;47007;49.252;8.904;2022-07-25T05:08:52;9.48;;;8.52;;
10637;SDS011;47007;49.252;8.904;2022-07-25T05:11:19;8.63;;;7.93;;
10637;SDS011;47007;49.252;8.904;2022-07-25T05:13:46;9.23;;;8.45;;
10637;SDS011;47007;49.252;8.904;2022-07-25T05:16:12;9.90;;;9.10;;
10637;SDS011;47007;49.252;8.904;2022-07-25T05:18:39;9.98;;;9.07;;
10637;SDS011;47007;49.252;8.904;2022-07-25T05:21:08;9.63;;;8.75;;
10637;SDS011;47007;49.252;8.904;2022-07-25T05:23:36;8.57;;;7.90;;
10637;SDS011;47007;49.252;8.904;2022-07-25T05:26:03;8.38;;;7.68;;
10637;SDS011;47007;49.252;8.904;2022-07-25T05:28:30;8.10;;;7.35;;
10637;SDS011;47007;49.252;8.904;2022-07-25T05:30:56;9.27;;;8.48;;
10637;SDS011;47007;49.252;8.904;2022-07-25T05:33:23;9.68;;;8.88;;
10637;SDS011;47007;49.252;8.904;2022-07-25T05:35:51;8.25;;;7.65;;
10637;SDS011;47007;49.252;8.904;2022-07-25T05:38:18;8.95;;;8.25;;
10637;SDS011;47007;49.252;8.904;2022-07-25T05:40:45;7.38;;;6.88;;
10637;SDS011;47007;49.252;8.904;2022-07-25T05:43:11;8.13;;;7.53;;
10637;SDS011;47007;49.252;8.904;2022-07-25T05:45:38;8.55;;;7.95;;
10637;SDS011;47007;49.252;8.904;2022-07-25T05:48:05;8.75;;;7.95;;
10637;SDS011;47007;49.252;8.904;2022-07-25T05:50:31;8.45;;;7.85;;
10637;SDS011;47007;49.252;8.904;2022-07-25T05:52:58;8.23;;;7.57;;
10637;SDS011;47007;49.252;8.904;2022-07-25T05:55:25;8.73;;;7.88;;
10637;SDS011;47007;49.252;8.904;2022-07-25T05:57:51;9.10;;;8.20;;
10637;SDS011;47007;49.252;8.904;2022-07-25T06:00:18;8.85;;;8.10;;
10637;SDS011;47007;49.252;8.904;2022-07-25T06:02:45;9.15;;;8.25;;
10637;SDS011;47007;49.252;8.904;2022-07-25T06:05:12;9.52;;;8.73;;
10637;SDS011;47007;49.252;8.904;2022-07-25T06:07:39;9.40;;;8.60;;
10637;SDS011;47007;49.252;8.904;2022-07-25T06:10:06;9.23;;;8.40;;
10637;SDS011;47007;49.252;8.904;2022-07-25T06:12:33;8.80;;;8.13;;
10637;SDS011;47007;49.252;8.904;2022-07-25T06:15:02;8.68;;;7.97;;
10637;SDS011;47007;49.252;8.904;2022-07-25T06:17:30;8.45;;;7.85;;
10637;SDS011;47007;49.252;8.904;2022-07-25T06:19:58;8.18;;;7.57;;
10637;SDS011;47007;49.252;8.904;2022-07-25T06:22:25;9.05;;;8.35;;
10637;SDS011;47007;49.252;8.904;2022-07-25T06:24:51;8.43;;;7.82;;
10637;SDS011;47007;49.252;8.904;2022-07-25T06:27:18;8.88;;;8.15;;
10637;SDS011;47007;49.252;8.904;2022-07-25T06:29:48;9.93;;;9.13;;
10637;SDS011;47007;49.252;8.904;2022-07-25T06:32:15;9.15;;;8.40;;
10637;SDS011;47007;49.252;8.904;2022-07-25T06:34:41;9.05;;;8.13;;
10637;SDS011;47007;49.252;8.904;2022-07-25T06:37:08;8.68;;;7.97;;
10637;SDS011;47007;49.252;8.904;2022-07-25T06:39:35;9.25;;;8.45;;
10637;SDS011;47007;49.252;8.904;2022-07-25T06:42:02;8.38;;;7.78;;
10637;SDS011;47007;49.252;8.904;2022-07-25T06:44:33;9.13;;;8.23;;
10637;SDS011;47007;49.252;8.904;2022-07-25T06:47:00;8.70;;;7.90;;
10637;SDS011;47007;49.252;8.904;2022-07-25T06:49:28;8.07;;;7.47;;
10637;SDS011;47007;49.252;8.904;2022-07-25T06:51:55;8.50;;;7.10;;
10637;SDS011;47007;49.252;8.904;2022-07-25T06:54:21;8.48;;;7.78;;
10637;SDS011;47007;49.252;8.904;2022-07-25T06:56:48;8.05;;;7.45;;
10637;SDS011;47007;49.252;8.904;2022-07-25T06:59:15;8.40;;;7.70;;
10637;SDS011;47007;49.252;8.904;2022-07-25T07:01:42;8.23;;;7.72;;
10637;SDS011;47007;49.252;8.904;2022-07-25T07:04:14;9.32;;;8.55;;
10637;SDS011;47007;49.252;8.904;2022-07-25T07:06:41;7.93;;;7.43;;
10637;SDS011;47007;49.252;8.904;2022-07-25T07:09:09;7.60;;;7.00;;
10637;SDS011;47007;49.252;8.904;2022-07-25T07:11:36;7.40;;;6.82;;
10637;SDS011;47007;49.252;8.904;2022-07-25T07:14:02;8.27;;;7.63;;
10637;SDS011;47007;49.252;8.904;2022-07-25T07:16:30;8.65;;;7.95;;
10637;SDS011;47007;49.252;8.904;2022-07-25T07:18:57;8.40;;;7.75;;
10637;SDS011;47007;49.252;8.904;2022-07-25T07:21:24;7.53;;;7.03;;
10637;SDS011;47007;49.252;8.904;2022-07-25T07:23:51;7.90;;;7.32;;
10637;SDS011;47007;49.252;8.904;2022-07-25T07:26:19;7.65;;;7.15;;
10637;SDS011;47007;49.252;8.904;2022-07-25T07:28:46;8.10;;;7.38;;
10637;SDS011;47007;49.252;8.904;2022-07-25T07:31:14;7.82;;;7.13;;
10637;SDS011;47007;49.252;8.904;2022-07-25T07:33:43;8.30;;;7.70;;
10637;SDS011;47007;49.252;8.904;2022-07-25T07:36:10;7.93;;;7.38;;
10637;SDS011;47007;49.252;8.904;2022-07-25T07:38:37;8.18;;;7.57;;
10637;SDS011;47007;49.252;8.904;2022-07-25T07:41:05;8.38;;;7.78;;
10637;SDS011;47007;49.252;8.904;2022-07-25T07:43:31;8.60;;;7.93;;
10637;SDS011;47007;49.252;8.904;2022-07-25T07:45:58;8.90;;;8.23;;
10637;SDS011;47007;49.252;8.904;2022-07-25T07:48:28;12.38;;;8.50;;
10637;SDS011;47007;49.252;8.904;2022-07-25T07:50:56;8.38;;;7.78;;
10637;SDS011;47007;49.252;8.904;2022-07-25T07:53:23;8.13;;;7.47;;
10637;SDS011;47007;49.252;8.904;2022-07-25T07:56:10;8.25;;;7.45;;
10637;SDS011;47007;49.252;8.904;2022-07-25T07:58:37;8.18;;;7.53;;
10637;SDS011;47007;49.252;8.904;2022-07-25T08:01:04;8.52;;;7.82;;
10637;SDS011;47007;49.252;8.904;2022-07-25T08:03:31;7.57;;;6.97;;
10637;SDS011;47007;49.252;8.904;2022-07-25T08:05:58;7.53;;;7.03;;
10637;SDS011;47007;49.252;8.904;2022-07-25T08:08:25;7.78;;;7.20;;
10637;SDS011;47007;49.252;8.904;2022-07-25T08:10:56;8.25;;;7.65;;
10637;SDS011;47007;49.252;8.904;2022-07-25T08:13:27;8.88;;;8.07;;
10637;SDS011;47007;49.252;8.904;2022-07-25T08:15:57;7.88;;;7.38;;
10637;SDS011;47007;49.252;8.904;2022-07-25T08:18:25;8.20;;;7.60;;
10637;SDS011;47007;49.252;8.904;2022-07-25T08:20:55;8.35;;;7.68;;
10637;SDS011;47007;49.252;8.904;2022-07-25T08:23:22;9.95;;;8.88;;
10637;SDS011;47007;49.252;8.904;2022-07-25T08:25:50;8.75;;;8.15;;
10637;SDS011;47007;49.252;8.904;2022-07-25T08:28:17;8.05;;;7.55;;
10637;SDS011;47007;49.252;8.904;2022-07-25T08:30:46;8.25;;;7.53;;
10637;SDS011;47007;49.252;8.904;2022-07-25T08:33:13;8.57;;;7.93;;
10637;SDS011;47007;49.252;8.904;2022-07-25T08:35:45;8.25;;;7.65;;
10637;SDS011;47007;49.252;8.904;2022-07-25T08:38:20;8.50;;;7.82;;
10637;SDS011;47007;49.252;8.904;2022-07-25T08:40:47;8.38;;;7.75;;
10637;SDS011;47007;49.252;8.904;2022-07-25T08:43:14;8.50;;;7.82;;
10637;SDS011;47007;49.252;8.904;2022-07-25T08:45:46;7.47;;;6.88;;
10637;SDS011;47007;49.252;8.904;2022-07-25T08:48:15;9.02;;;8.32;;
10637;SDS011;47007;49.252;8.904;2022-07-25T08:50:44;8.10;;;7.40;;
10637;SDS011;47007;49.252;8.904;2022-07-25T08:53:14;7.80;;;7.28;;
10637;SDS011;47007;49.252;8.904;2022-07-25T08:55:59;8.50;;;7.82;;
10637;SDS011;47007;49.252;8.904;2022-07-25T08:58:25;8.07;;;7.47;;
10637;SDS011;47007;49.252;8.904;2022-07-25T09:00:52;7.88;;;7.28;;
10637;SDS011;47007;49.252;8.904;2022-07-25T09:03:22;8.13;;;7.40;;
10637;SDS011;47007;49.252;8.904;2022-07-25T09:05:48;8.52;;;7.70;;
10637;SDS011;47007;49.252;8.904;2022-07-25T09:08:16;8.10;;;7.55;;
10637;SDS011;47007;49.252;8.904;2022-07-25T09:10:47;7.97;;;7.38;;
10637;SDS011;47007;49.252;8.904;2022-07-25T09:13:16;8.02;;;7.53;;
10637;SDS011;47007;49.252;8.904;2022-07-25T09:18:15;8.25;;;7.65;;
10637;SDS011;47007;49.252;8.904;2022-07-25T09:20:47;10.15;;;9.45;;
10637;SDS011;47007;49.252;8.904;2022-07-25T09:26:00;8.20;;;7.60;;
10637;SDS011;47007;49.252;8.904;2022-07-25T09:28:29;8.23;;;7.53;;
10637;SDS011;47007;49.252;8.904;2022-07-25T09:30:57;8.82;;;8.10;;
10637;SDS011;47007;49.252;8.904;2022-07-25T09:33:27;9.75;;;8.80;;
10637;SDS011;47007;49.252;8.904;2022-07-25T09:35:55;11.30;;;8.40;;
10637;SDS011;47007;49.252;8.904;2022-07-25T09:38:22;8.40;;;7.60;;
10637;SDS011;47007;49.252;8.904;2022-07-25T09:40:54;8.18;;;7.47;;
10637;SDS011;47007;49.252;8.904;2022-07-25T09:43:21;8.52;;;7.88;;
10637;SDS011;47007;49.252;8.904;2022-07-25T09:45:49;8.15;;;7.63;;
10637;SDS011;47007;49.252;8.904;2022-07-25T09:48:18;7.78;;;7.18;;
10637;SDS011;47007;49.252;8.904;2022-07-25T09:50:46;8.00;;;7.30;;
10637;SDS011;47007;49.252;8.904;2022-07-25T09:53:13;7.47;;;6.97;;
10637;SDS011;47007;49.252;8.904;2022-07-25T09:55:40;8.05;;;7.45;;
10637;SDS011;47007;49.252;8.904;2022-07-25T09:58:07;7.97;;;7.38;;
10637;SDS011;47007;49.252;8.904;2022-07-25T10:00:33;8.07;;;7.53;;
10637;SDS011;47007;49.252;8.904;2022-07-25T10:03:14;8.15;;;7.40;;
10637;SDS011;47007;49.252;8.904;2022-07-25T10:08:51;7.70;;;7.20;;
10637;SDS011;47007;49.252;8.904;2022-07-25T10:11:20;8.50;;;7.90;;
10637;SDS011;47007;49.252;8.904;2022-07-25T10:13:48;8.30;;;7.72;;
10637;SDS011;47007;49.252;8.904;2022-07-25T10:16:16;9.00;;;8.38;;
10637;SDS011;47007;49.252;8.904;2022-07-25T10:18:52;7.65;;;7.15;;
10637;SDS011;47007;49.252;8.904;2022-07-25T10:21:21;7.28;;;6.78;;
10637;SDS011;47007;49.252;8.904;2022-07-25T10:24:00;8.10;;;7.50;;
10637;SDS011;47007;49.252;8.904;2022-07-25T10:26:30;7.80;;;7.30;;
10637;SDS011;47007;49.252;8.904;2022-07-25T10:28:58;7.30;;;6.80;;
10637;SDS011;47007;49.252;8.904;2022-07-25T10:31:34;7.25;;;6.72;;
10637;SDS011;47007;49.252;8.904;2022-07-25T10:34:04;7.38;;;6.82;;
10637;SDS011;47007;49.252;8.904;2022-07-25T10:36:48;6.70;;;6.20;;
10637;SDS011;47007;49.252;8.904;2022-07-25T10:39:18;7.63;;;6.82;;
10637;SDS011;47007;49.252;8.904;2022-07-25T10:41:53;6.78;;;6.35;;
10637;SDS011;47007;49.252;8.904;2022-07-25T10:44:26;8.45;;;7.53;;
10637;SDS011;47007;49.252;8.904;2022-07-25T10:47:05;15.07;;;7.75;;
10637;SDS011;47007;49.252;8.904;2022-07-25T10:49:35;6.38;;;5.88;;
10637;SDS011;47007;49.252;8.904;2022-07-25T10:52:16;8.05;;;7.15;;
10637;SDS011;47007;49.252;8.904;2022-07-25T10:54:52;7.68;;;7.10;;
10637;SDS011;47007;49.252;8.904;2022-07-25T10:57:26;7.18;;;6.78;;
10637;SDS011;47007;49.252;8.904;2022-07-25T11:00:06;7.90;;;7.13;;
10637;SDS011;47007;49.252;8.904;2022-07-25T11:02:33;7.43;;;6.70;;
10637;SDS011;47007;49.252;8.904;2022-07-25T11:05:01;7.45;;;6.85;;
10637;SDS011;47007;49.252;8.904;2022-07-25T11:07:29;6.97;;;6.50;;
10637;SDS011;47007;49.252;8.904;2022-07-25T11:10:03;6.47;;;6.05;;
10637;SDS011;47007;49.252;8.904;2022-07-25T11:12:31;6.30;;;5.90;;
10637;SDS011;47007;49.252;8.904;2022-07-25T11:15:03;6.53;;;5.80;;
10637;SDS011;47007;49.252;8.904;2022-07-25T11:17:32;5.85;;;5.40;;
10637;SDS011;47007;49.252;8.904;2022-07-25T11:20:06;6.20;;;5.80;;
10637;SDS011;47007;49.252;8.904;2022-07-25T11:22:35;6.15;;;5.70;;
10637;SDS011;47007;49.252;8.904;2022-07-25T11:25:08;6.57;;;6.10;;
10637;SDS011;47007;49.252;8.904;2022-07-25T11:27:36;6.53;;;6.03;;
10637;SDS011;47007;49.252;8.904;2022-07-25T11:30:17;6.13;;;5.72;;
10637;SDS011;47007;49.252;8.904;2022-07-25T11:32:49;5.55;;;5.03;;
10637;SDS011;47007;49.252;8.904;2022-07-25T11:35:24;6.40;;;5.80;;
10637;SDS011;47007;49.252;8.904;2022-07-25T11:37:55;5.95;;;5.55;;
10637;SDS011;47007;49.252;8.904;2022-07-25T11:40:24;6.07;;;5.68;;
10637;SDS011;47007;49.252;8.904;2022-07-25T11:54:52;5.35;;;5.05;;
10637;SDS011;47007;49.252;8.904;2022-07-25T11:57:21;5.50;;;5.10;;
10637;SDS011;47007;49.252;8.904;2022-07-25T11:59:49;5.60;;;5.07;;
10637;SDS011;47007;49.252;8.904;2022-07-25T12:02:23;4.82;;;4.43;;
10637;SDS011;47007;49.252;8.904;2022-07-25T12:04:59;5.18;;;4.78;;
10637;SDS011;47007;49.252;8.904;2022-07-25T12:14:30;5.18;;;4.82;;
10637;SDS011;47007;49.252;8.904;2022-07-25T12:17:07;5.93;;;5.43;;
10637;SDS011;47007;49.252;8.904;2022-07-25T12:19:34;5.13;;;4.82;;
10637;SDS011;47007;49.252;8.904;2022-07-25T12:22:06;5.18;;;4.78;;
10637;SDS011;47007;49.252;8.904;2022-07-25T12:24:33;5.63;;;4.90;;
10637;SDS011;47007;49.252;8.904;2022-07-25T12:26:59;4.97;;;4.68;;
10637;SDS011;47007;49.252;8.904;2022-07-25T12:29:26;5.88;;;5.30;;
10637;SDS011;47007;49.252;8.904;2022-07-25T12:31:53;5.82;;;5.43;;
10637;SDS011;47007;49.252;8.904;2022-07-25T12:34:20;5.55;;;5.15;;
10637;SDS011;47007;49.252;8.904;2022-07-25T12:36:46;5.57;;;5.18;;
10637;SDS011;47007;49.252;8.904;2022-07-25T12:39:13;5.75;;;5.35;;
10637;SDS011;47007;49.252;8.904;2022-07-25T12:41:40;6.22;;;5.72;;
10637;SDS011;47007;49.252;8.904;2022-07-25T12:44:08;6.07;;;5.57;;
10637;SDS011;47007;49.252;8.904;2022-07-25T12:46:35;6.10;;;5.60;;
10637;SDS011;47007;49.252;8.904;2022-07-25T12:49:03;6.78;;;6.18;;
10637;SDS011;47007;49.252;8.904;2022-07-25T12:51:30;7.20;;;6.18;;
10637;SDS011;47007;49.252;8.904;2022-07-25T12:53:57;6.30;;;5.90;;
10637;SDS011;47007;49.252;8.904;2022-07-25T12:56:24;7.03;;;6.47;;
10637;SDS011;47007;49.252;8.904;2022-07-25T12:58:51;5.88;;;5.47;;
10637;SDS011;47007;49.252;8.904;2022-07-25T13:01:17;5.32;;;4.95;;
10637;SDS011;47007;49.252;8.904;2022-07-25T13:03:44;5.88;;;5.38;;
10637;SDS011;47007;49.252;8.904;2022-07-25T13:06:11;5.28;;;4.97;;
10637;SDS011;47007;49.252;8.904;2022-07-25T13:08:38;6.68;;;6.07;;
10637;SDS011;47007;49.252;8.904;2022-07-25T13:11:05;5.35;;;5.05;;
10637;SDS011;47007;49.252;8.904;2022-07-25T13:13:31;5.88;;;5.47;;
10637;SDS011;47007;49.252;8.904;2022-07-25T13:15:58;6.00;;;5.60;;
10637;SDS011;47007;49.252;8.904;2022-07-25T13:18:25;6.47;;;5.97;;
10637;SDS011;47007;49.252;8.904;2022-07-25T13:20:52;5.95;;;5.63;;
10637;SDS011;47007;49.252;8.904;2022-07-25T13:23:18;6.07;;;5.50;;
10637;SDS011;47007;49.252;8.904;2022-07-25T13:25:46;6.20;;;5.75;;
10637;SDS011;47007;49.252;8.904;2022-07-25T13:28:13;6.72;;;5.97;;
10637;SDS011;47007;49.252;8.904;2022-07-25T13:30:39;6.88;;;6.38;;
10637;SDS011;47007;49.252;8.904;2022-07-25T13:33:07;10.15;;;6.63;;
10637;SDS011;47007;49.252;8.904;2022-07-25T13:35:35;6.30;;;5.90;;
10637;SDS011;47007;49.252;8.904;2022-07-25T13:38:07;7.03;;;6.10;;
10637;SDS011;47007;49.252;8.904;2022-07-25T13:40:34;7.88;;;7.07;;
10637;SDS011;47007;49.252;8.904;2022-07-25T13:43:09;9.57;;;7.45;;
10637;SDS011;47007;49.252;8.904;2022-07-25T13:45:37;7.97;;;6.45;;
10637;SDS011;47007;49.252;8.904;2022-07-25T13:48:05;6.80;;;6.30;;
10637;SDS011;47007;49.252;8.904;2022-07-25T13:50:52;6.70;;;6.30;;
10637;SDS011;47007;49.252;8.904;2022-07-25T13:53:19;6.93;;;6.45;;
10637;SDS011;47007;49.252;8.904;2022-07-25T13:55:46;6.43;;;5.82;;
10637;SDS011;47007;49.252;8.904;2022-07-25T13:58:14;6.57;;;6.00;;
10637;SDS011;47007;49.252;8.904;2022-07-25T14:00:41;6.05;;;5.50;;
10637;SDS011;47007;49.252;8.904;2022-07-25T14:03:08;6.38;;;5.88;;
10637;SDS011;47007;49.252;8.904;2022-07-25T14:05:37;6.60;;;6.10;;
10637;SDS011;47007;49.252;8.904;2022-07-25T14:08:05;7.15;;;6.63;;
10637;SDS011;47007;49.252;8.904;2022-07-25T14:10:33;7.20;;;6.65;;
10637;SDS011;47007;49.252;8.904;2022-07-25T14:13:00;6.65;;;6.25;;
10637;SDS011;47007;49.252;8.904;2022-07-25T14:15:27;6.97;;;6.47;;
10637;SDS011;47007;49.252;8.904;2022-07-25T14:17:54;6.97;;;6.40;;
10637;SDS011;47007;49.252;8.904;2022-07-25T14:20:20;6.85;;;6.40;;
10637;SDS011;47007;49.252;8.904;2022-07-25T14:22:47;6.95;;;6.30;;
10637;SDS011;47007;49.252;8.904;2022-07-25T14:25:14;7.60;;;6.90;;
10637;SDS011;47007;49.252;8.904;2022-07-25T14:27:41;7.15;;;6.65;;
10637;SDS011;47007;49.252;8.904;2022-07-25T14:30:08;7.13;;;6.60;;
10637;SDS011;47007;49.252;8.904;2022-07-25T14:32:35;7.38;;;6.88;;
10637;SDS011;47007;49.252;8.904;2022-07-25T14:35:02;8.18;;;7.38;;
10637;SDS011;47007;49.252;8.904;2022-07-25T14:37:32;7.40;;;6.80;;
10637;SDS011;47007;49.252;8.904;2022-07-25T14:39:59;7.88;;;6.95;;
10637;SDS011;47007;49.252;8.904;2022-07-25T14:42:46;7.30;;;6.70;;
10637;SDS011;47007;49.252;8.904;2022-07-25T14:45:14;7.13;;;6.63;;
10637;SDS011;47007;49.252;8.904;2022-07-25T14:48:05;7.28;;;6.60;;
10637;SDS011;47007;49.252;8.904;2022-07-25T14:50:32;8.55;;;6.88;;
10637;SDS011;47007;49.252;8.904;2022-07-25T14:52:59;6.78;;;6.38;;
10637;SDS011;47007;49.252;8.904;2022-07-25T14:55:25;7.00;;;6.38;;
10637;SDS011;47007;49.252;8.904;2022-07-25T14:57:52;6.57;;;6.07;;
10637;SDS011;47007;49.252;8.904;2022-07-25T15:00:19;6.20;;;5.70;;
10637;SDS011;47007;49.252;8.904;2022-07-25T15:02:50;6.70;;;6.10;;
10637;SDS011;47007;49.252;8.904;2022-07-25T15:05:17;7.10;;;6.50;;
10637;SDS011;47007;49.252;8.904;2022-07-25T15:07:43;6.93;;;6.40;;
10637;SDS011;47007;49.252;8.904;2022-07-25T15:10:10;6.57;;;6.18;;
10637;SDS011;47007;49.252;8.904;2022-07-25T15:12:38;6.47;;;5.90;;
10637;SDS011;47007;49.252;8.904;2022-07-25T15:15:05;6.45;;;5.95;;
10637;SDS011;47007;49.252;8.904;2022-07-25T15:17:32;6.30;;;5.90;;
10637;SDS011;47007;49.252;8.904;2022-07-25T15:19:59;7.13;;;6.53;;
10637;SDS011;47007;49.252;8.904;2022-07-25T15:22:26;6.32;;;5.93;;